Plantation, FL (33388)

1:04 PM EST on February 07, 2016 (GMT -0500)
Davie Central | | Change Station
CLOSE
Current Station
Personal Weather Station
Location: Davie, FL
Elevation: 23 ft
Nearby Weather Stations

Elev 23 ft 26.10 °N, 80.26 °W | Updated 3 minutes ago

Mostly Cloudy
Mostly Cloudy
61.2 °F
Feels Like 61.2 °F
N
8.3
Wind Variable Wind from ESE

Today
High -- | Low -- °F
--% Chance of Precip.
Yesterday
High -- | Low -- °F
Precip. -- in
Pressure 30.02 in
Visibility 10.0 miles
Clouds Scattered Clouds 3000 ft
Dew Point 48 °F
Humidity 61%
Rainfall 0.21 in
Snow Depth Not available.
7:02 AM 6:08 PM
Waning Crescent, 1% visible
METAR KFLL 071753Z 30014G24KT 10SM SCT030 15/08 A3002 RMK AO2 PK WND 31028/1742 SLP165 T01500078 10156 20106 58012
Pressure 30.02 in
Visibility 10.0 miles
Clouds Scattered Clouds 3000 ft
Dew Point 48 °F
Humidity 61%
Rainfall 0.21 in
Snow Depth Not available.
7:02 AM 6:08 PM
Waning Crescent, 1% visible
METAR KFLL 071753Z 30014G24KT 10SM SCT030 15/08 A3002 RMK AO2 PK WND 31028/1742 SLP165 T01500078 10156 20106 58012

10-Day Weather Forecast

Almanac

Astronomy

Feb. 07, 2016 Rise Set
Actual Time
Civil Twilight
Nautical Twilight
Astronomical Twilight
Moon
Length of Visible Light
Length of Day
Tomorrow will be .
, % of the Moon is Illuminated

Today's Extremes

State Highs State Lows

Community

WunderPhotos

Upload Photos

1,891,263 photos uploaded!

WunderBlog® & News

Nearby

Air Quality

  Air Quality AQ Index Pollutant
Not available.

Snow Depth

Station Depth Elevation

Earthquake Activity

City Distance Mag. Time & Date
Minimum magnitude displayed is 2.5.

Coastal Water Temperatures

Place Temperature

Stations

Nearby Weather Stations

Station Location Temp. Windchill Dew Point Humidity Wind Precip. Elev Updated Type
                   

Watches & Warnings

There are currently no watches in effect.